createdAt,value
2018-08-22T00:00:33.392Z,3.20
2018-08-22T00:01:33.390Z,3.00
2018-08-22T00:02:33.334Z,3.90
2018-08-22T00:03:33.279Z,2.50
2018-08-22T00:04:33.232Z,2.60
2018-08-22T00:05:33.194Z,3.00
2018-08-22T00:06:33.167Z,2.90
2018-08-22T00:07:33.157Z,2.50
2018-08-22T00:08:33.090Z,4.40
2018-08-22T00:09:33.050Z,2.70
2018-08-22T00:10:33.036Z,3.70
2018-08-22T00:11:32.978Z,3.00
2018-08-22T00:12:32.950Z,4.00
2018-08-22T00:13:32.938Z,2.80
2018-08-22T00:14:32.874Z,2.60
2018-08-22T00:15:43.284Z,2.80
2018-08-22T00:16:32.798Z,4.20
2018-08-22T00:17:32.760Z,2.60
2018-08-22T00:18:32.761Z,2.60
2018-08-22T00:19:32.695Z,3.40
2018-08-22T00:20:32.655Z,2.80
2018-08-22T00:21:32.614Z,2.90
2018-08-22T00:22:32.650Z,3.70
2018-08-22T00:23:32.550Z,3.50
2018-08-22T00:24:32.533Z,2.80
2018-08-22T00:25:32.481Z,3.60
2018-08-22T00:26:32.433Z,3.70
2018-08-22T00:27:32.394Z,4.50
2018-08-22T00:28:32.388Z,3.30
2018-08-22T00:29:32.347Z,3.60
2018-08-22T00:30:32.299Z,3.80
2018-08-22T00:31:32.261Z,2.70
2018-08-22T00:32:32.223Z,3.70
2018-08-22T00:33:32.187Z,3.00
2018-08-22T00:34:32.175Z,2.80
2018-08-22T00:35:32.109Z,2.70
2018-08-22T00:36:32.078Z,3.10
2018-08-22T00:37:32.046Z,3.60
2018-08-22T00:38:32.002Z,3.40
2018-08-22T00:39:31.988Z,3.70
2018-08-22T00:40:31.927Z,4.80
2018-08-22T00:41:31.890Z,2.90
2018-08-22T00:42:31.877Z,2.80
2018-08-22T00:43:31.828Z,3.70
2018-08-22T00:44:31.818Z,3.00
2018-08-22T00:45:31.753Z,2.80
2018-08-22T00:46:31.713Z,2.70
2018-08-22T00:47:31.672Z,3.00
2018-08-22T00:48:31.639Z,3.00
2018-08-22T00:49:31.602Z,2.70
2018-08-22T00:50:31.624Z,2.70
2018-08-22T00:51:31.536Z,3.10
2018-08-22T00:52:31.498Z,2.80
2018-08-22T00:53:31.459Z,2.80
2018-08-22T00:54:31.432Z,3.00
2018-08-22T00:55:31.414Z,3.50
2018-08-22T00:56:31.359Z,3.60
2018-08-22T00:57:31.321Z,3.20
2018-08-22T00:58:31.278Z,4.20
2018-08-22T00:59:31.249Z,3.20
2018-08-22T01:00:31.243Z,2.70
2018-08-22T01:01:31.170Z,3.90
2018-08-22T01:02:31.140Z,3.90
2018-08-22T01:03:31.105Z,3.40
2018-08-22T01:04:31.073Z,3.30
2018-08-22T01:05:31.031Z,3.90
2018-08-22T01:06:31.011Z,3.20
2018-08-22T01:07:30.954Z,2.60
2018-08-22T01:08:30.923Z,2.90
2018-08-22T01:09:30.887Z,3.30
2018-08-22T01:10:30.843Z,2.90
2018-08-22T01:11:30.831Z,3.40
2018-08-22T01:12:30.773Z,4.60
2018-08-22T01:13:30.741Z,3.90
2018-08-22T01:14:30.707Z,3.30
2018-08-22T01:15:30.673Z,4.00
2018-08-22T01:16:30.661Z,3.90
2018-08-22T01:17:30.605Z,3.20
2018-08-22T01:18:30.555Z,4.70
2018-08-22T01:19:30.519Z,4.30
2018-08-22T01:20:30.488Z,4.00
2018-08-22T01:21:30.446Z,3.40
2018-08-22T01:22:30.441Z,3.50
2018-08-22T01:23:30.378Z,4.00
2018-08-22T01:24:30.336Z,3.50
2018-08-22T01:25:30.303Z,3.30
2018-08-22T01:26:30.271Z,3.50
2018-08-22T01:27:30.234Z,3.50
2018-08-22T01:28:30.224Z,4.60
2018-08-22T01:29:30.164Z,3.60
2018-08-22T01:30:30.127Z,3.40
2018-08-22T01:31:40.339Z,3.60
2018-08-22T01:32:30.060Z,4.10
2018-08-22T01:33:30.041Z,3.80
2018-08-22T01:34:29.985Z,5.10
2018-08-22T01:35:29.952Z,4.10
2018-08-22T01:36:29.899Z,4.10
2018-08-22T01:37:29.869Z,4.60
2018-08-22T01:38:29.855Z,3.50
2018-08-22T01:39:29.805Z,3.60
2018-08-22T01:40:29.760Z,4.10
2018-08-22T01:41:29.720Z,3.40
2018-08-22T01:42:29.681Z,5.10
2018-08-22T01:43:29.675Z,3.40
2018-08-22T01:44:29.613Z,4.30
2018-08-22T01:45:29.577Z,5.60
2018-08-22T01:46:29.545Z,4.50
2018-08-22T01:47:29.510Z,3.70
2018-08-22T01:48:29.460Z,3.50
2018-08-22T01:49:39.386Z,4.10
2018-08-22T01:50:29.422Z,3.30
2018-08-22T01:51:29.358Z,4.10
2018-08-22T01:52:29.316Z,3.40
2018-08-22T01:53:29.282Z,3.20
2018-08-22T01:54:29.271Z,3.40
2018-08-22T01:55:29.208Z,3.60
2018-08-22T01:56:29.172Z,3.40
2018-08-22T01:57:29.136Z,4.10
2018-08-22T01:58:29.102Z,3.50
2018-08-22T01:59:29.078Z,3.40
2018-08-22T02:00:29.028Z,3.50
2018-08-22T02:01:28.984Z,3.50
2018-08-22T02:02:28.956Z,3.90
2018-08-22T02:03:28.917Z,3.40
2018-08-22T02:04:28.909Z,3.30
2018-08-22T02:05:28.849Z,3.90
2018-08-22T02:06:28.800Z,3.40
2018-08-22T02:07:28.768Z,3.50
2018-08-22T02:08:28.740Z,3.70
2018-08-22T02:09:38.435Z,3.70
2018-08-22T02:10:28.670Z,3.60
2018-08-22T02:11:28.620Z,3.60
2018-08-22T02:12:28.586Z,3.40
2018-08-22T02:13:28.549Z,4.40
2018-08-22T02:14:28.515Z,3.60
2018-08-22T02:15:28.498Z,5.20
2018-08-22T02:16:28.438Z,3.70
2018-08-22T02:17:28.395Z,4.00
2018-08-22T02:18:28.359Z,3.40
2018-08-22T02:19:28.325Z,4.20
2018-08-22T02:20:28.327Z,3.30
2018-08-22T02:21:28.256Z,3.70
2018-08-22T02:22:28.213Z,4.40
2018-08-22T02:23:28.179Z,4.20
2018-08-22T02:24:28.146Z,4.50
2018-08-22T02:25:28.131Z,5.00
2018-08-22T02:26:28.075Z,4.00
2018-08-22T02:27:28.038Z,3.50
2018-08-22T02:28:27.994Z,3.90
2018-08-22T02:29:27.958Z,3.70
2018-08-22T02:30:27.977Z,3.70
2018-08-22T02:31:27.882Z,3.90
2018-08-22T02:32:27.852Z,4.70
2018-08-22T02:33:27.815Z,4.50
2018-08-22T02:34:27.780Z,3.80
2018-08-22T02:35:27.769Z,4.40
2018-08-22T02:36:27.702Z,3.60
2018-08-22T02:37:27.660Z,3.40
2018-08-22T02:38:27.636Z,3.40
2018-08-22T02:39:27.592Z,5.50
2018-08-22T02:40:27.609Z,3.60
2018-08-22T02:41:27.509Z,3.60
2018-08-22T02:42:27.478Z,4.20
2018-08-22T02:43:27.443Z,4.00
2018-08-22T02:44:27.410Z,4.40
2018-08-22T02:45:27.371Z,4.00
2018-08-22T02:46:27.361Z,3.80
2018-08-22T02:47:27.302Z,3.70
2018-08-22T02:48:27.258Z,3.70
2018-08-22T02:49:27.217Z,4.20
2018-08-22T02:50:27.182Z,3.70
2018-08-22T02:51:27.171Z,3.70
2018-08-22T02:52:27.111Z,4.40
2018-08-22T02:53:27.082Z,4.30
2018-08-22T02:54:27.029Z,4.10
2018-08-22T02:55:26.997Z,3.60
2018-08-22T02:56:26.969Z,4.40
2018-08-22T02:57:26.948Z,3.70
2018-08-22T02:58:26.891Z,3.50
2018-08-22T02:59:26.860Z,4.40
2018-08-22T03:00:26.805Z,3.80
2018-08-22T03:01:26.772Z,3.80
2018-08-22T03:02:26.753Z,4.00
2018-08-22T03:03:26.700Z,4.00
2018-08-22T03:04:26.666Z,4.00
2018-08-22T03:05:26.630Z,4.00
2018-08-22T03:06:26.591Z,3.70
2018-08-22T03:07:26.585Z,3.80
2018-08-22T03:08:26.515Z,3.80
2018-08-22T03:09:26.476Z,4.30
2018-08-22T03:10:26.454Z,4.00
2018-08-22T03:11:26.411Z,4.50
2018-08-22T03:12:26.362Z,3.70
2018-08-22T03:13:26.347Z,3.70
2018-08-22T03:14:26.288Z,4.40
2018-08-22T03:15:26.252Z,3.70
2018-08-22T03:16:26.220Z,3.80
2018-08-22T03:17:26.182Z,3.80
2018-08-22T03:18:26.168Z,3.80
2018-08-22T03:19:26.112Z,3.50
2018-08-22T03:20:26.066Z,4.10
2018-08-22T03:21:26.031Z,4.30
2018-08-22T03:22:25.993Z,3.60
2018-08-22T03:23:25.983Z,3.80
2018-08-22T03:24:25.924Z,3.70
2018-08-22T03:25:25.887Z,4.00
2018-08-22T03:26:25.841Z,3.90
2018-08-22T03:27:25.806Z,4.10
2018-08-22T03:28:25.772Z,4.60
2018-08-22T03:29:25.760Z,4.20
2018-08-22T03:30:25.698Z,3.60
2018-08-22T03:31:25.663Z,4.20
2018-08-22T03:32:25.617Z,3.80
2018-08-22T03:33:25.583Z,4.10
2018-08-22T03:34:25.574Z,4.10
2018-08-22T03:35:25.506Z,4.00
2018-08-22T03:36:25.477Z,4.20
2018-08-22T03:37:25.438Z,4.00
2018-08-22T03:38:25.401Z,4.00
2018-08-22T03:39:25.386Z,4.70
2018-08-22T03:40:25.322Z,4.00
2018-08-22T03:41:25.286Z,4.10
2018-08-22T03:42:25.254Z,4.40
2018-08-22T03:43:25.220Z,4.10
2018-08-22T03:44:25.195Z,3.90
2018-08-22T03:45:25.132Z,4.90
2018-08-22T03:46:35.497Z,4.00
2018-08-22T03:47:25.067Z,4.70
2018-08-22T03:48:25.028Z,4.30
2018-08-22T03:49:24.991Z,4.00
2018-08-22T03:50:24.977Z,4.30
2018-08-22T03:51:24.909Z,3.40
2018-08-22T03:52:24.875Z,4.40
2018-08-22T03:53:24.833Z,5.00
2018-08-22T03:54:24.826Z,4.30
2018-08-22T03:55:24.770Z,4.00
2018-08-22T03:56:24.721Z,3.90
2018-08-22T03:57:24.683Z,4.50
2018-08-22T03:58:24.652Z,3.90
2018-08-22T03:59:24.637Z,4.00
2018-08-22T04:00:24.586Z,3.80
2018-08-22T04:01:24.537Z,3.80
2018-08-22T04:02:24.499Z,4.00
2018-08-22T04:03:24.458Z,4.40
2018-08-22T04:04:24.448Z,4.20
2018-08-22T04:05:34.522Z,3.80
2018-08-22T04:06:24.361Z,4.60
2018-08-22T04:07:24.316Z,4.30
2018-08-22T04:08:24.268Z,4.20
2018-08-22T04:09:24.263Z,4.20
2018-08-22T04:10:24.212Z,4.20
2018-08-22T04:11:24.167Z,4.10
2018-08-22T04:12:24.120Z,3.60
2018-08-22T04:13:24.085Z,4.30
2018-08-22T04:14:24.043Z,4.80
2018-08-22T04:15:24.029Z,5.10
2018-08-22T04:16:23.980Z,4.30
2018-08-22T04:17:23.938Z,5.10
2018-08-22T04:18:23.901Z,4.60
2018-08-22T04:19:23.898Z,4.30
2018-08-22T04:20:23.821Z,4.00
2018-08-22T04:21:23.779Z,4.00
2018-08-22T04:22:23.744Z,4.40
2018-08-22T04:23:23.716Z,4.20
2018-08-22T04:24:23.681Z,4.90
2018-08-22T04:25:33.584Z,4.10
2018-08-22T04:26:23.602Z,4.00
2018-08-22T04:27:23.568Z,4.10
2018-08-22T04:28:23.529Z,3.80
2018-08-22T04:29:23.489Z,5.50
2018-08-22T04:30:23.476Z,4.00
2018-08-22T04:31:23.408Z,4.30
2018-08-22T04:32:23.368Z,3.90
2018-08-22T04:33:23.328Z,4.60
2018-08-22T04:34:23.299Z,4.20
2018-08-22T04:35:23.282Z,3.90
2018-08-22T04:36:23.223Z,4.40
2018-08-22T04:37:23.248Z,4.60
2018-08-22T04:38:23.142Z,4.20
2018-08-22T04:39:23.102Z,4.60
2018-08-22T04:40:23.101Z,4.10
2018-08-22T04:41:23.034Z,4.00
2018-08-22T04:42:22.993Z,4.30
2018-08-22T04:43:22.950Z,4.40
2018-08-22T04:44:22.914Z,5.00
2018-08-22T04:45:22.878Z,4.00
2018-08-22T04:46:22.869Z,4.80
2018-08-22T04:47:22.807Z,3.90
2018-08-22T04:48:22.774Z,4.90
2018-08-22T04:49:22.737Z,4.20
2018-08-22T04:50:22.724Z,5.30
2018-08-22T04:51:22.657Z,5.20
2018-08-22T04:52:22.613Z,4.30
2018-08-22T04:53:22.580Z,5.10
2018-08-22T04:54:22.546Z,4.20
2018-08-22T04:55:22.531Z,4.80
2018-08-22T04:56:22.468Z,4.20
2018-08-22T04:57:22.431Z,4.30
2018-08-22T04:58:22.394Z,4.30
2018-08-22T04:59:22.360Z,5.20
2018-08-22T05:00:32.128Z,4.40
2018-08-22T05:01:22.280Z,5.30
2018-08-22T05:02:22.239Z,4.40
2018-08-22T05:03:22.204Z,5.60
2018-08-22T05:04:22.171Z,4.60
2018-08-22T05:05:22.129Z,4.20
2018-08-22T05:06:22.114Z,4.40
2018-08-22T05:07:22.057Z,4.30
2018-08-22T05:08:22.017Z,4.40
2018-08-22T05:09:21.977Z,5.30
2018-08-22T05:10:21.946Z,5.30
2018-08-22T05:11:21.935Z,4.10
2018-08-22T05:12:21.864Z,4.70
2018-08-22T05:13:21.824Z,4.00
2018-08-22T05:14:21.786Z,6.00
2018-08-22T05:15:21.748Z,7.10
2018-08-22T05:16:21.722Z,4.50
2018-08-22T05:17:21.703Z,4.80
2018-08-22T05:18:21.645Z,4.90
2018-08-22T05:19:21.606Z,6.00
2018-08-22T05:20:21.570Z,4.00
2018-08-22T05:21:21.551Z,4.10
2018-08-22T05:22:21.490Z,5.40
2018-08-22T05:23:21.458Z,4.40
2018-08-22T05:24:21.425Z,5.40
2018-08-22T05:25:21.385Z,5.30
2018-08-22T05:26:21.340Z,3.80
2018-08-22T05:27:21.323Z,3.50
2018-08-22T05:28:21.280Z,3.50
2018-08-22T05:29:21.238Z,4.90
2018-08-22T05:30:21.209Z,4.40
2018-08-22T05:31:21.183Z,3.60
2018-08-22T05:32:21.127Z,3.30
2018-08-22T05:33:21.082Z,3.30
2018-08-22T05:34:21.051Z,5.20
2018-08-22T05:35:21.009Z,4.10
2018-08-22T05:36:30.677Z,3.40
2018-08-22T05:37:20.952Z,3.10
2018-08-22T05:38:20.907Z,4.70
2018-08-22T05:39:20.868Z,4.10
2018-08-22T05:40:20.839Z,4.70
2018-08-22T05:41:20.805Z,3.30
2018-08-22T05:42:20.780Z,3.30
2018-08-22T05:43:20.730Z,4.10
2018-08-22T05:44:20.694Z,4.40
2018-08-22T05:45:20.657Z,4.30
2018-08-22T05:46:20.630Z,4.10
2018-08-22T05:47:20.615Z,4.60
2018-08-22T05:48:20.562Z,6.20
2018-08-22T05:49:20.525Z,6.20
2018-08-22T05:50:20.486Z,4.50
2018-08-22T05:51:20.457Z,6.00
2018-08-22T05:52:20.433Z,5.20
2018-08-22T05:53:20.379Z,4.40
2018-08-22T05:54:20.349Z,4.90
2018-08-22T05:55:20.315Z,3.70
2018-08-22T05:56:20.276Z,4.70
2018-08-22T05:57:30.226Z,4.70
2018-08-22T05:58:20.215Z,5.50
2018-08-22T05:59:20.178Z,5.80
2018-08-22T06:00:20.144Z,5.20
2018-08-22T06:01:20.109Z,3.40
2018-08-22T06:02:20.088Z,6.00
2018-08-22T06:03:20.082Z,3.60
2018-08-22T06:04:20.005Z,4.90
2018-08-22T06:05:19.974Z,4.00
2018-08-22T06:06:19.937Z,3.40
2018-08-22T06:07:19.927Z,4.20
2018-08-22T06:08:19.864Z,4.20
2018-08-22T06:09:19.829Z,4.70
2018-08-22T06:10:19.805Z,3.30
2018-08-22T06:11:19.771Z,3.70
2018-08-22T06:12:19.728Z,3.60
2018-08-22T06:13:19.716Z,3.60
2018-08-22T06:14:19.661Z,3.60
2018-08-22T06:15:19.628Z,3.40
2018-08-22T06:16:19.605Z,4.70
2018-08-22T06:17:19.570Z,3.50
2018-08-22T06:18:19.558Z,4.50
2018-08-22T06:19:19.503Z,4.90
2018-08-22T06:20:19.466Z,4.70
2018-08-22T06:21:19.426Z,3.60
2018-08-22T06:22:19.394Z,3.80
2018-08-22T06:23:19.383Z,3.40
2018-08-22T06:24:19.338Z,4.50
2018-08-22T06:25:19.324Z,4.90
2018-08-22T06:26:19.270Z,5.00
2018-08-22T06:27:19.234Z,4.20
2018-08-22T06:28:19.227Z,3.90
2018-08-22T06:29:19.173Z,5.00
2018-08-22T06:30:19.138Z,5.40
2018-08-22T06:31:19.110Z,4.80
2018-08-22T06:32:19.070Z,5.20
2018-08-22T06:33:19.062Z,6.40
2018-08-22T06:34:19.006Z,4.50
2018-08-22T06:35:18.970Z,6.00
2018-08-22T06:36:19.009Z,6.50
2018-08-22T06:37:18.912Z,4.60
2018-08-22T06:38:18.884Z,5.90
2018-08-22T06:39:18.869Z,5.30
2018-08-22T06:40:18.812Z,5.40
2018-08-22T06:41:18.793Z,5.70
2018-08-22T06:42:18.755Z,5.60
2018-08-22T06:43:18.742Z,6.10
2018-08-22T06:44:18.733Z,5.60
2018-08-22T06:45:18.649Z,6.10
2018-08-22T06:46:18.624Z,6.20
2018-08-22T06:47:18.587Z,5.60
2018-08-22T06:48:18.592Z,5.90
2018-08-22T06:49:18.531Z,4.90
2018-08-22T06:50:18.528Z,6.10
2018-08-22T06:51:18.476Z,5.60
2018-08-22T06:52:18.433Z,4.90
2018-08-22T06:53:18.399Z,4.80
2018-08-22T06:54:18.406Z,4.00
2018-08-22T06:55:18.338Z,4.30
2018-08-22T06:56:29.750Z,5.70
2018-08-22T06:57:18.278Z,5.50
2018-08-22T06:58:18.255Z,5.00
2018-08-22T06:59:18.242Z,4.70
2018-08-22T07:00:18.184Z,5.40
2018-08-22T07:01:18.155Z,4.80
2018-08-22T07:02:18.116Z,4.40
2018-08-22T07:03:18.169Z,4.50
2018-08-22T07:04:18.097Z,3.90
2018-08-22T07:05:18.047Z,4.00
2018-08-22T07:06:18.002Z,4.40
2018-08-22T07:07:17.972Z,5.50
2018-08-22T07:08:17.966Z,4.60
2018-08-22T07:09:17.905Z,6.60
2018-08-22T07:10:17.893Z,4.60
2018-08-22T07:11:17.839Z,5.00
2018-08-22T07:12:17.813Z,5.50
2018-08-22T07:13:17.792Z,6.40
2018-08-22T07:14:27.806Z,4.70
2018-08-22T07:15:17.738Z,5.30
2018-08-22T07:16:17.697Z,5.30
2018-08-22T07:17:17.662Z,4.70
2018-08-22T07:18:17.632Z,3.60
2018-08-22T07:19:17.601Z,3.90
2018-08-22T07:20:17.587Z,3.60
2018-08-22T07:21:17.530Z,4.70
2018-08-22T07:22:17.501Z,5.20
2018-08-22T07:23:17.468Z,4.00
2018-08-22T07:24:17.454Z,7.50
2018-08-22T07:25:17.421Z,5.70
2018-08-22T07:26:17.409Z,4.30
2018-08-22T07:27:17.349Z,3.90
2018-08-22T07:28:17.331Z,5.40
2018-08-22T07:29:17.302Z,3.50
2018-08-22T07:30:17.316Z,4.50
2018-08-22T07:31:17.295Z,5.70
2018-08-22T07:32:27.345Z,4.80
2018-08-22T07:33:17.172Z,4.30
2018-08-22T07:34:17.145Z,4.60
2018-08-22T07:35:17.111Z,5.00
2018-08-22T07:36:17.103Z,3.80
2018-08-22T07:37:17.053Z,4.50
2018-08-22T07:38:17.017Z,4.60
2018-08-22T07:39:16.984Z,5.10
2018-08-22T07:40:16.970Z,5.00
2018-08-22T07:41:16.955Z,5.10
2018-08-22T07:42:16.890Z,4.00
2018-08-22T07:43:16.862Z,5.70
2018-08-22T07:44:16.834Z,5.10
2018-08-22T07:45:16.801Z,4.20
2018-08-22T07:46:16.863Z,4.40
2018-08-22T07:47:16.785Z,6.50
2018-08-22T07:48:16.713Z,4.00
2018-08-22T07:49:16.680Z,3.80
2018-08-22T07:50:16.731Z,4.80
2018-08-22T07:51:16.657Z,5.10
2018-08-22T07:52:26.886Z,3.50
2018-08-22T07:53:16.603Z,3.90
2018-08-22T07:54:16.542Z,5.90
2018-08-22T07:55:16.516Z,6.00
2018-08-22T07:56:16.506Z,6.30
2018-08-22T07:57:16.442Z,3.80
2018-08-22T07:58:16.415Z,4.90
2018-08-22T07:59:16.390Z,4.00
2018-08-22T08:00:16.468Z,4.10
2018-08-22T08:01:16.333Z,5.50
2018-08-22T08:02:16.326Z,3.60
2018-08-22T08:03:16.271Z,4.70
2018-08-22T08:04:16.235Z,5.10
2018-08-22T08:05:16.208Z,5.00
2018-08-22T08:06:16.177Z,3.90
2018-08-22T08:07:16.166Z,5.00
2018-08-22T08:08:16.129Z,4.50
2018-08-22T08:09:16.090Z,3.90
2018-08-22T08:10:16.058Z,4.70
2018-08-22T08:11:16.026Z,4.80
2018-08-22T08:12:16.033Z,5.70
2018-08-22T08:13:15.971Z,3.80
2018-08-22T08:14:15.950Z,4.10
2018-08-22T08:15:15.958Z,5.10
2018-08-22T08:16:15.882Z,5.40
2018-08-22T08:17:15.921Z,5.30
2018-08-22T08:18:15.822Z,6.10
2018-08-22T08:19:15.794Z,6.00
2018-08-22T08:20:15.779Z,3.60
2018-08-22T08:21:15.745Z,5.70
2018-08-22T08:22:15.746Z,5.80
2018-08-22T08:23:15.689Z,3.70
2018-08-22T08:24:15.653Z,4.40
2018-08-22T08:25:15.622Z,4.00
2018-08-22T08:26:15.695Z,6.10
2018-08-22T08:27:15.573Z,4.70
2018-08-22T08:28:15.561Z,5.50
2018-08-22T08:29:15.511Z,5.20
2018-08-22T08:30:15.482Z,5.80
2018-08-22T08:31:15.451Z,5.20
2018-08-22T08:32:15.431Z,6.80
2018-08-22T08:33:15.422Z,5.40
2018-08-22T08:34:15.370Z,4.60
2018-08-22T08:35:15.344Z,5.00
2018-08-22T08:36:15.335Z,5.10
2018-08-22T08:37:15.282Z,5.60
2018-08-22T08:38:15.287Z,6.00
2018-08-22T08:39:15.223Z,7.30
2018-08-22T08:40:15.202Z,5.40
2018-08-22T08:41:15.173Z,6.00
2018-08-22T08:42:15.134Z,6.90
2018-08-22T08:43:15.154Z,7.40
2018-08-22T08:44:15.090Z,7.40
2018-08-22T08:45:15.058Z,5.70
2018-08-22T08:46:15.030Z,9.10
2018-08-22T08:47:15.003Z,6.90
2018-08-22T08:48:14.968Z,7.10
2018-08-22T08:49:14.960Z,6.20
2018-08-22T08:50:14.917Z,7.00
2018-08-22T08:51:14.890Z,5.10
2018-08-22T08:52:14.861Z,6.80
2018-08-22T08:53:14.862Z,6.10
2018-08-22T08:54:14.808Z,6.70
2018-08-22T08:55:14.780Z,6.00
2018-08-22T08:56:14.744Z,6.00
2018-08-22T08:57:14.805Z,5.20
2018-08-22T08:58:14.712Z,6.50
2018-08-22T08:59:14.691Z,4.30
2018-08-22T09:00:14.633Z,5.40
2018-08-22T09:01:14.605Z,9.00
2018-08-22T09:02:14.582Z,4.60
2018-08-22T09:03:14.550Z,5.10
2018-08-22T09:04:14.557Z,9.30
2018-08-22T09:05:14.524Z,5.00
2018-08-22T09:06:14.479Z,6.30
2018-08-22T09:07:14.447Z,8.70
2018-08-22T09:08:14.414Z,5.50
2018-08-22T09:09:14.409Z,5.00
2018-08-22T09:10:14.357Z,5.70
2018-08-22T09:11:24.461Z,7.00
2018-08-22T09:12:14.324Z,5.90
2018-08-22T09:13:14.277Z,6.20
2018-08-22T09:14:14.281Z,6.40
2018-08-22T09:15:14.229Z,5.40
2018-08-22T09:16:14.203Z,8.30
2018-08-22T09:17:14.217Z,7.30
2018-08-22T09:18:14.141Z,5.30
2018-08-22T09:19:14.110Z,10.10
2018-08-22T09:20:14.108Z,7.00
2018-08-22T09:21:14.084Z,6.70
2018-08-22T09:22:14.038Z,7.90
2018-08-22T09:23:14.012Z,8.60
2018-08-22T09:24:13.985Z,8.10
2018-08-22T09:25:13.975Z,8.00
2018-08-22T09:26:13.922Z,7.70
2018-08-22T09:27:13.895Z,9.60
2018-08-22T09:28:13.955Z,6.90
2018-08-22T09:29:13.857Z,8.70
2018-08-22T09:30:13.842Z,6.20
2018-08-22T09:31:24.028Z,8.30
2018-08-22T09:32:13.769Z,7.50
2018-08-22T09:33:13.746Z,7.60
2018-08-22T09:34:13.717Z,8.00
2018-08-22T09:35:13.692Z,7.20
2018-08-22T09:36:13.679Z,9.10
2018-08-22T09:37:13.627Z,7.00
2018-08-22T09:38:13.602Z,6.80
2018-08-22T09:39:13.605Z,7.50
2018-08-22T09:40:13.591Z,8.30
2018-08-22T09:41:13.550Z,10.00
2018-08-22T09:42:13.494Z,8.90
2018-08-22T09:43:13.522Z,7.90
2018-08-22T09:44:13.497Z,7.70
2018-08-22T09:45:13.420Z,7.60
2018-08-22T09:46:13.444Z,8.00
2018-08-22T09:47:13.391Z,9.50
2018-08-22T09:48:13.343Z,7.20
2018-08-22T09:49:13.367Z,10.40
2018-08-22T09:50:13.312Z,8.50
2018-08-22T09:51:13.304Z,7.80
2018-08-22T09:52:23.547Z,7.90
2018-08-22T09:53:13.213Z,7.50
2018-08-22T09:54:13.190Z,11.40
2018-08-22T09:55:13.157Z,6.80
2018-08-22T09:56:13.139Z,7.90
2018-08-22T09:57:13.139Z,7.20
2018-08-22T09:58:13.120Z,8.90
2018-08-22T09:59:13.054Z,12.40
2018-08-22T10:00:13.115Z,7.10
2018-08-22T10:01:12.999Z,11.40
2018-08-22T10:02:13.003Z,9.30
2018-08-22T10:03:12.955Z,12.90
2018-08-22T10:04:12.957Z,9.30
2018-08-22T10:05:12.904Z,8.40
2018-08-22T10:06:12.908Z,10.60
2018-08-22T10:07:12.963Z,7.50
2018-08-22T10:08:12.821Z,9.30
2018-08-22T10:09:12.791Z,7.70
2018-08-22T10:10:12.796Z,7.50
2018-08-22T10:11:12.749Z,9.50
2018-08-22T10:12:12.743Z,10.40
2018-08-22T10:13:12.695Z,8.30
2018-08-22T10:14:12.683Z,7.20
2018-08-22T10:15:12.652Z,8.20
2018-08-22T10:16:12.628Z,8.00
2018-08-22T10:17:12.653Z,7.80
2018-08-22T10:18:12.574Z,6.40
2018-08-22T10:19:12.549Z,11.10
2018-08-22T10:20:12.523Z,7.70
2018-08-22T10:21:12.496Z,11.40
2018-08-22T10:22:12.479Z,8.60
2018-08-22T10:23:12.477Z,7.50
2018-08-22T10:24:12.430Z,7.80
2018-08-22T10:25:12.409Z,9.30
2018-08-22T10:26:12.380Z,10.30
2018-08-22T10:27:12.357Z,8.30
2018-08-22T10:28:12.368Z,9.40
2018-08-22T10:29:12.315Z,9.00
2018-08-22T10:30:12.284Z,9.70
2018-08-22T10:31:12.263Z,8.20
2018-08-22T10:32:12.242Z,7.80
2018-08-22T10:33:12.214Z,8.90
2018-08-22T10:34:12.219Z,9.00
2018-08-22T10:35:12.174Z,10.90
2018-08-22T10:36:12.154Z,8.90
2018-08-22T10:37:12.130Z,9.20
2018-08-22T10:38:12.100Z,9.10
2018-08-22T10:39:12.096Z,8.50
2018-08-22T10:40:12.048Z,8.80
2018-08-22T10:41:12.031Z,9.60
2018-08-22T10:42:12.010Z,9.70
2018-08-22T10:43:11.996Z,8.50
2018-08-22T10:44:11.982Z,12.00
2018-08-22T10:45:11.943Z,10.70
2018-08-22T10:46:11.922Z,10.00
2018-08-22T10:47:11.895Z,9.60
2018-08-22T10:48:11.871Z,10.80
2018-08-22T10:49:11.877Z,11.40
2018-08-22T10:50:11.820Z,9.00
2018-08-22T10:51:11.793Z,12.90
2018-08-22T10:52:11.773Z,9.50
2018-08-22T10:53:11.751Z,10.50
2018-08-22T10:54:11.735Z,9.60
2018-08-22T10:55:11.736Z,11.40
2018-08-22T10:56:11.692Z,10.70
2018-08-22T10:57:11.663Z,13.10
2018-08-22T10:58:11.635Z,11.50
2018-08-22T10:59:11.613Z,11.10
2018-08-22T11:00:11.620Z,13.50
2018-08-22T11:01:11.575Z,13.80
2018-08-22T11:02:11.547Z,10.90
2018-08-22T11:03:11.530Z,12.60
2018-08-22T11:04:11.500Z,11.80
2018-08-22T11:05:11.505Z,12.20
2018-08-22T11:06:11.462Z,13.00
2018-08-22T11:07:11.441Z,13.40
2018-08-22T11:08:11.418Z,14.60
2018-08-22T11:09:11.398Z,10.90
2018-08-22T11:10:11.365Z,11.50
2018-08-22T11:11:11.365Z,12.40
2018-08-22T11:12:11.322Z,13.60
2018-08-22T11:13:11.296Z,13.20
2018-08-22T11:14:11.307Z,13.10
2018-08-22T11:15:11.258Z,12.40
2018-08-22T11:16:11.270Z,12.70
2018-08-22T11:17:11.206Z,11.60
2018-08-22T11:18:11.196Z,12.10
2018-08-22T11:19:11.169Z,11.30
2018-08-22T11:20:11.150Z,13.20
2018-08-22T11:21:11.152Z,11.70
2018-08-22T11:22:11.095Z,13.70
2018-08-22T11:23:11.074Z,10.50
2018-08-22T11:24:11.050Z,11.30
2018-08-22T11:25:11.027Z,13.70
2018-08-22T11:26:11.010Z,10.80
2018-08-22T11:27:11.013Z,8.70
2018-08-22T11:28:10.975Z,10.40
2018-08-22T11:29:10.947Z,10.70
2018-08-22T11:30:10.918Z,14.90
2018-08-22T11:31:10.896Z,15.00
2018-08-22T11:32:10.906Z,16.20
2018-08-22T11:33:10.863Z,10.10
2018-08-22T11:34:10.835Z,10.40
2018-08-22T11:35:10.809Z,13.50
2018-08-22T11:36:10.786Z,11.90
2018-08-22T11:37:10.788Z,18.60
2018-08-22T11:38:10.747Z,16.80
2018-08-22T11:39:10.727Z,16.80
2018-08-22T11:40:10.718Z,11.10
2018-08-22T11:41:10.681Z,22.10
2018-08-22T11:42:10.653Z,13.70
2018-08-22T11:43:10.656Z,20.30
2018-08-22T11:44:10.608Z,13.80
2018-08-22T11:45:10.586Z,16.00
2018-08-22T11:46:10.573Z,12.10
2018-08-22T11:47:10.548Z,11.90
2018-08-22T11:48:10.542Z,12.30
2018-08-22T11:49:10.497Z,9.80
2018-08-22T11:50:10.477Z,9.20
2018-08-22T11:51:10.457Z,10.00
2018-08-22T11:52:10.460Z,13.80
2018-08-22T11:53:10.414Z,9.50
2018-08-22T11:54:10.384Z,11.50
2018-08-22T11:55:10.367Z,9.20
2018-08-22T11:56:10.425Z,11.70
2018-08-22T11:57:10.313Z,12.00
2018-08-22T11:58:10.320Z,11.80
2018-08-22T11:59:10.274Z,11.20
2018-08-22T12:00:10.254Z,8.90
2018-08-22T12:01:10.232Z,11.40
2018-08-22T12:02:10.198Z,9.80
2018-08-22T12:03:10.199Z,9.90
2018-08-22T12:04:10.161Z,12.50
2018-08-22T12:05:10.138Z,10.80
2018-08-22T12:06:10.109Z,11.20
2018-08-22T12:07:10.087Z,10.80
2018-08-22T12:08:10.100Z,9.90
2018-08-22T12:09:10.040Z,8.90
2018-08-22T12:10:10.026Z,12.50
2018-08-22T12:11:20.136Z,11.10
2018-08-22T12:12:09.972Z,11.40
2018-08-22T12:13:09.971Z,10.90
2018-08-22T12:14:09.926Z,12.30
2018-08-22T12:15:09.900Z,12.30
2018-08-22T12:16:09.907Z,10.40
2018-08-22T12:17:09.870Z,9.50
2018-08-22T12:18:09.853Z,10.10
2018-08-22T12:19:09.828Z,11.90
2018-08-22T12:20:09.795Z,9.00
2018-08-22T12:21:09.771Z,9.80
2018-08-22T12:22:09.747Z,10.40
2018-08-22T12:23:09.912Z,10.10
2018-08-22T12:24:09.690Z,11.90
2018-08-22T12:25:09.668Z,8.90
2018-08-22T12:26:09.646Z,9.70
2018-08-22T12:27:09.628Z,9.70
2018-08-22T12:28:09.630Z,11.30
2018-08-22T12:29:09.582Z,10.10
2018-08-22T12:30:09.561Z,11.20
2018-08-22T12:31:09.682Z,12.80
2018-08-22T12:32:09.504Z,10.10
2018-08-22T12:33:09.505Z,10.90
2018-08-22T12:34:09.461Z,11.40
2018-08-22T12:35:09.442Z,10.90
2018-08-22T12:36:09.406Z,10.80
2018-08-22T12:37:09.382Z,10.30
2018-08-22T12:38:09.360Z,11.70
2018-08-22T12:39:09.354Z,11.50
2018-08-22T12:40:09.321Z,10.30
2018-08-22T12:41:09.294Z,11.10
2018-08-22T12:42:09.268Z,11.00
2018-08-22T12:43:09.246Z,11.20
2018-08-22T12:44:09.238Z,10.70
2018-08-22T12:45:09.186Z,8.80
2018-08-22T12:46:09.164Z,11.30
2018-08-22T12:47:09.143Z,11.50
2018-08-22T12:48:09.208Z,10.50
2018-08-22T12:49:09.124Z,10.10
2018-08-22T12:50:09.061Z,10.10
2018-08-22T12:51:09.043Z,11.50
2018-08-22T12:52:17.194Z,10.50
2018-08-22T12:53:08.993Z,11.00
2018-08-22T12:54:08.988Z,11.20
2018-08-22T12:55:08.935Z,13.00
2018-08-22T12:56:08.909Z,11.30
2018-08-22T12:57:08.909Z,11.10
2018-08-22T12:58:08.862Z,10.70
2018-08-22T12:59:08.839Z,10.60
2018-08-22T13:00:08.835Z,12.10
2018-08-22T13:01:08.784Z,9.70
2018-08-22T13:02:08.753Z,12.70
2018-08-22T13:03:08.733Z,10.70
2018-08-22T13:04:08.709Z,10.30
2018-08-22T13:05:08.701Z,11.10
2018-08-22T13:06:08.670Z,9.10
2018-08-22T13:07:08.618Z,9.70
2018-08-22T13:08:08.623Z,8.50
2018-08-22T13:09:08.570Z,10.10
2018-08-22T13:10:08.570Z,10.30
2018-08-22T13:11:08.580Z,8.40
2018-08-22T13:12:08.502Z,8.20
2018-08-22T13:13:08.474Z,10.90